createdAt,value
2023-02-25T00:01:54.618Z,81.80
2023-02-25T00:04:31.646Z,82.94
2023-02-25T00:07:00.629Z,81.88
2023-02-25T00:09:29.964Z,80.55
2023-02-25T00:11:57.992Z,80.69
2023-02-25T00:14:26.723Z,80.85
2023-02-25T00:16:57.557Z,80.26
2023-02-25T00:19:26.530Z,80.04
2023-02-25T00:21:54.877Z,79.85
2023-02-25T00:24:23.436Z,79.38
2023-02-25T00:26:51.755Z,79.50
2023-02-25T00:29:27.698Z,79.67
2023-02-25T00:31:56.252Z,79.49
2023-02-25T00:34:24.864Z,79.48
2023-02-25T00:36:53.458Z,79.28
2023-02-25T00:39:24.711Z,79.41
2023-02-25T00:41:54.221Z,78.82
2023-02-25T00:44:22.391Z,78.25
2023-02-25T00:46:53.345Z,78.48
2023-02-25T00:49:32.448Z,78.31
2023-02-25T00:52:01.671Z,78.56
2023-02-25T00:54:30.159Z,78.49
2023-02-25T00:56:58.528Z,78.32
2023-02-25T00:59:27.213Z,78.10
2023-02-25T01:01:55.665Z,78.11
2023-02-25T01:04:24.099Z,77.90
2023-02-25T01:06:54.311Z,77.61
2023-02-25T01:09:22.867Z,77.47
2023-02-25T01:11:52.597Z,77.51
2023-02-25T01:14:23.053Z,78.01
2023-02-25T01:17:00.316Z,77.66
2023-02-25T01:19:29.496Z,77.30
2023-02-25T01:21:59.015Z,77.95
2023-02-25T01:24:29.741Z,77.98
2023-02-25T01:27:00.887Z,77.92
2023-02-25T01:29:35.677Z,78.00
2023-02-25T01:32:06.181Z,77.89
2023-02-25T01:34:35.169Z,78.63
2023-02-25T01:37:07.832Z,79.04
2023-02-25T01:39:40.556Z,79.07
2023-02-25T01:42:16.153Z,79.28
2023-02-25T01:45:19.150Z,80.39
2023-02-25T01:48:03.703Z,80.91
2023-02-25T01:50:37.909Z,81.11
2023-02-25T01:53:25.374Z,81.39
2023-02-25T01:55:55.058Z,81.44
2023-02-25T01:58:23.907Z,80.24
2023-02-25T02:00:55.732Z,80.73
2023-02-25T02:03:31.300Z,81.20
2023-02-25T02:06:29.585Z,81.66
2023-02-25T02:09:00.220Z,79.98
2023-02-25T02:11:28.375Z,79.85
2023-02-25T02:13:58.152Z,79.32
2023-02-25T02:16:39.558Z,79.49
2023-02-25T02:19:37.982Z,79.13
2023-02-25T02:22:30.467Z,79.33
2023-02-25T02:25:33.120Z,80.25
2023-02-25T02:28:35.109Z,80.22
2023-02-25T02:31:21.495Z,79.16
2023-02-25T02:34:10.854Z,79.14
2023-02-25T02:37:07.452Z,80.00
2023-02-25T02:40:19.759Z,80.92
2023-02-25T02:43:01.944Z,80.98
2023-02-25T02:45:43.495Z,81.66
2023-02-25T02:48:21.024Z,81.32
2023-02-25T02:50:56.873Z,81.21
2023-02-25T02:53:51.088Z,80.19
2023-02-25T02:56:21.989Z,79.19
2023-02-25T02:59:07.957Z,79.37
2023-02-25T03:01:43.589Z,80.19
2023-02-25T03:04:19.284Z,80.74
2023-02-25T03:06:55.116Z,81.17
2023-02-25T03:09:35.261Z,81.80
2023-02-25T03:12:03.775Z,82.88
2023-02-25T03:14:33.885Z,83.62
2023-02-25T03:17:05.793Z,82.60
2023-02-25T03:20:10.529Z,82.67
2023-02-25T03:22:43.379Z,83.68
2023-02-25T03:25:33.071Z,84.08
2023-02-25T03:28:18.230Z,84.51
2023-02-25T03:31:13.402Z,83.30
2023-02-25T03:33:48.982Z,84.08
2023-02-25T03:36:33.033Z,83.99
2023-02-25T03:39:21.076Z,83.91
2023-02-25T03:41:53.749Z,83.22
2023-02-25T03:44:47.525Z,82.02
2023-02-25T03:47:18.255Z,81.22
2023-02-25T03:49:59.303Z,81.53
2023-02-25T03:52:28.745Z,80.26
2023-02-25T03:55:00.016Z,80.31
2023-02-25T03:57:38.405Z,81.90
2023-02-25T04:00:22.864Z,82.31
2023-02-25T04:02:51.201Z,82.30
2023-02-25T04:05:22.129Z,83.72
2023-02-25T04:07:50.758Z,83.61
2023-02-25T04:10:18.844Z,85.39
2023-02-25T04:12:47.021Z,85.61
2023-02-25T04:15:15.392Z,85.94
2023-02-25T04:17:45.604Z,86.68
2023-02-25T04:20:14.835Z,86.49
2023-02-25T04:22:43.483Z,86.56
2023-02-25T04:25:11.595Z,86.53
2023-02-25T04:27:40.342Z,85.98
2023-02-25T04:30:09.869Z,85.41
2023-02-25T04:32:38.105Z,87.54
2023-02-25T04:35:11.700Z,87.44
2023-02-25T04:37:41.812Z,87.39
2023-02-25T04:40:16.374Z,88.27
2023-02-25T04:42:45.167Z,87.18
2023-02-25T04:45:15.416Z,87.10
2023-02-25T04:47:43.989Z,87.26
2023-02-25T04:50:12.968Z,86.87
2023-02-25T04:52:41.047Z,85.12
2023-02-25T04:55:09.996Z,84.98
2023-02-25T04:57:45.371Z,85.14
2023-02-25T05:00:27.264Z,84.89
2023-02-25T05:02:56.672Z,85.19
2023-02-25T05:05:24.794Z,83.81
2023-02-25T05:07:52.802Z,83.74
2023-02-25T05:10:30.150Z,83.47
2023-02-25T05:12:58.447Z,82.35
2023-02-25T05:15:46.057Z,81.51
2023-02-25T05:18:14.653Z,80.79
2023-02-25T05:20:48.053Z,80.38
2023-02-25T05:23:16.316Z,80.14
2023-02-25T05:25:44.503Z,79.22
2023-02-25T05:28:15.536Z,78.70
2023-02-25T05:30:44.091Z,78.65
2023-02-25T05:33:13.729Z,78.54
2023-02-25T05:35:42.014Z,78.16
2023-02-25T05:38:10.184Z,77.97
2023-02-25T05:40:39.790Z,77.55
2023-02-25T05:43:09.199Z,77.61
2023-02-25T05:45:37.474Z,77.73
2023-02-25T05:48:06.170Z,77.56
2023-02-25T05:50:41.747Z,77.69
2023-02-25T05:53:10.194Z,77.91
2023-02-25T05:55:42.869Z,78.13
2023-02-25T05:58:11.774Z,78.41
2023-02-25T06:00:40.284Z,78.54
2023-02-25T06:03:08.476Z,78.64
2023-02-25T06:05:41.719Z,79.19
2023-02-25T06:08:11.213Z,79.82
2023-02-25T06:10:40.624Z,79.94
2023-02-25T06:13:10.828Z,80.24
2023-02-25T06:15:41.252Z,80.21
2023-02-25T06:18:10.173Z,80.49
2023-02-25T06:20:38.673Z,80.75
2023-02-25T06:23:07.111Z,81.60
2023-02-25T06:25:35.800Z,80.83
2023-02-25T06:28:04.518Z,80.67
2023-02-25T06:30:32.801Z,80.53
2023-02-25T06:33:01.047Z,80.27
2023-02-25T06:35:34.445Z,80.27
2023-02-25T06:38:02.516Z,80.13
2023-02-25T06:40:30.787Z,81.04
2023-02-25T06:43:08.662Z,81.51
2023-02-25T06:45:37.313Z,80.82
2023-02-25T06:48:07.001Z,80.63
2023-02-25T06:50:38.234Z,81.07
2023-02-25T06:53:06.913Z,82.11
2023-02-25T06:55:35.301Z,82.37
2023-02-25T06:58:06.064Z,81.87
2023-02-25T07:00:34.520Z,81.79
2023-02-25T07:03:03.422Z,81.73
2023-02-25T07:05:31.891Z,81.32
2023-02-25T07:08:00.156Z,81.27
2023-02-25T07:10:28.544Z,82.27
2023-02-25T07:12:56.822Z,83.69
2023-02-25T07:15:25.103Z,83.41
2023-02-25T07:17:53.572Z,82.67
2023-02-25T07:20:21.747Z,84.91
2023-02-25T07:22:50.235Z,83.76
2023-02-25T07:25:19.489Z,84.64
2023-02-25T07:27:47.671Z,83.62
2023-02-25T07:30:18.852Z,81.98
2023-02-25T07:32:47.081Z,82.24
2023-02-25T07:35:15.538Z,82.94
2023-02-25T07:37:43.811Z,82.41
2023-02-25T07:40:16.991Z,81.47
2023-02-25T07:42:45.276Z,81.26
2023-02-25T07:45:14.361Z,81.13
2023-02-25T07:47:42.740Z,79.74
2023-02-25T07:50:13.014Z,74.74
2023-02-25T07:52:41.641Z,69.49
2023-02-25T07:55:26.247Z,67.04
2023-02-25T07:57:54.472Z,63.46
2023-02-25T08:00:22.850Z,63.00
2023-02-25T08:02:50.997Z,62.03
2023-02-25T08:05:21.971Z,56.90
2023-02-25T08:07:51.169Z,53.48
2023-02-25T08:10:19.351Z,51.94
2023-02-25T08:12:47.442Z,50.81
2023-02-25T08:15:15.588Z,51.02
2023-02-25T08:17:43.971Z,50.62
2023-02-25T08:20:12.453Z,50.67
2023-02-25T08:22:40.649Z,50.90
2023-02-25T08:25:09.321Z,52.17
2023-02-25T08:27:37.912Z,53.96
2023-02-25T08:30:09.595Z,54.93
2023-02-25T08:32:37.961Z,53.69
2023-02-25T08:35:06.723Z,53.03
2023-02-25T08:37:34.903Z,48.91
2023-02-25T08:40:07.721Z,47.87
2023-02-25T08:42:36.769Z,47.56
2023-02-25T08:45:05.575Z,45.70
2023-02-25T08:47:33.942Z,43.01
2023-02-25T08:50:02.086Z,42.82
2023-02-25T08:52:33.850Z,40.64
2023-02-25T08:55:03.260Z,38.19
2023-02-25T08:57:31.871Z,34.99
2023-02-25T09:00:00.103Z,33.93
2023-02-25T09:02:28.322Z,28.69
2023-02-25T09:04:56.910Z,27.03
2023-02-25T09:07:25.003Z,24.38
2023-02-25T09:09:53.448Z,22.59
2023-02-25T09:12:24.300Z,21.72
2023-02-25T09:14:52.971Z,20.92
2023-02-25T09:17:21.048Z,20.16
2023-02-25T09:19:49.423Z,18.72
2023-02-25T09:22:18.717Z,18.65
2023-02-25T09:24:46.895Z,18.32
2023-02-25T09:27:14.967Z,19.29
2023-02-25T09:29:42.972Z,19.74
2023-02-25T09:32:18.564Z,18.63
2023-02-25T09:34:49.229Z,17.17
2023-02-25T09:37:19.777Z,16.73
2023-02-25T09:39:48.101Z,17.17
2023-02-25T09:42:23.678Z,16.62
2023-02-25T09:44:57.897Z,18.73
2023-02-25T09:47:56.829Z,20.61
2023-02-25T09:50:24.958Z,24.99
2023-02-25T09:53:21.850Z,27.14
2023-02-25T09:55:52.189Z,29.06
2023-02-25T09:58:29.311Z,30.84
2023-02-25T10:01:22.194Z,31.91
2023-02-25T10:03:53.733Z,30.77
2023-02-25T10:06:39.644Z,29.28
2023-02-25T10:09:32.773Z,30.27
2023-02-25T10:12:31.525Z,31.70
2023-02-25T10:15:10.108Z,32.76
2023-02-25T10:17:43.581Z,33.57
2023-02-25T10:20:18.576Z,35.05
2023-02-25T10:23:14.650Z,34.48
2023-02-25T10:25:55.945Z,35.42
2023-02-25T10:28:24.927Z,37.60
2023-02-25T10:30:53.704Z,37.22
2023-02-25T10:33:24.617Z,39.31
2023-02-25T10:36:00.625Z,41.35
2023-02-25T10:38:29.000Z,42.76
2023-02-25T10:40:58.707Z,43.92
2023-02-25T10:43:27.751Z,44.49
2023-02-25T10:46:02.472Z,45.32
2023-02-25T10:48:32.247Z,45.75
2023-02-25T10:51:13.232Z,45.52
2023-02-25T10:53:53.422Z,49.15
2023-02-25T10:56:22.376Z,49.21
2023-02-25T10:59:07.018Z,51.59
2023-02-25T11:01:40.082Z,55.62
2023-02-25T11:04:15.310Z,56.73
2023-02-25T11:06:44.961Z,59.81
2023-02-25T11:09:19.178Z,62.72
2023-02-25T11:11:55.521Z,63.75
2023-02-25T11:14:32.366Z,65.51
2023-02-25T11:17:07.307Z,65.66
2023-02-25T11:19:50.062Z,65.98
2023-02-25T11:22:31.862Z,67.17
2023-02-25T11:25:07.667Z,67.96
2023-02-25T11:27:41.652Z,69.32
2023-02-25T11:30:13.011Z,69.55
2023-02-25T11:32:44.668Z,69.88
2023-02-25T11:35:24.327Z,69.36
2023-02-25T11:37:54.824Z,69.91
2023-02-25T11:40:28.198Z,70.07
2023-02-25T11:43:05.328Z,69.62
2023-02-25T11:45:38.531Z,70.18
2023-02-25T11:48:45.501Z,69.96
2023-02-25T11:51:13.734Z,69.80
2023-02-25T11:54:10.299Z,70.86
2023-02-25T11:56:44.078Z,70.83
2023-02-25T11:59:29.344Z,71.54
2023-02-25T12:02:29.501Z,72.06
2023-02-25T12:05:24.604Z,72.61
2023-02-25T12:08:12.884Z,73.21
2023-02-25T12:10:57.385Z,73.45
2023-02-25T12:13:55.100Z,73.29
2023-02-25T12:16:48.477Z,73.97
2023-02-25T12:19:54.389Z,73.83
2023-02-25T12:23:02.592Z,73.74
2023-02-25T12:25:49.465Z,74.02
2023-02-25T12:28:54.918Z,74.23
2023-02-25T12:31:48.389Z,75.15
2023-02-25T12:34:25.811Z,76.07
2023-02-25T12:36:54.112Z,76.19
2023-02-25T12:39:40.993Z,76.57
2023-02-25T12:42:31.296Z,76.21
2023-02-25T12:45:14.621Z,76.14
2023-02-25T12:47:58.295Z,75.83
2023-02-25T12:50:38.305Z,75.15
2023-02-25T12:53:30.322Z,74.89
2023-02-25T12:56:37.742Z,74.99
2023-02-25T12:59:23.539Z,75.11
2023-02-25T13:01:55.693Z,75.00
2023-02-25T13:04:43.019Z,75.52
2023-02-25T13:07:55.588Z,74.64
2023-02-25T13:10:39.497Z,74.04
2023-02-25T13:13:46.270Z,74.34
2023-02-25T13:16:37.340Z,75.17
2023-02-25T13:19:11.076Z,76.19
2023-02-25T13:21:51.745Z,76.67
2023-02-25T13:24:38.039Z,76.89
2023-02-25T13:27:21.069Z,77.23
2023-02-25T13:30:12.201Z,76.32
2023-02-25T13:32:49.777Z,74.87
2023-02-25T13:35:33.156Z,75.85
2023-02-25T13:38:38.349Z,76.61
2023-02-25T13:41:25.806Z,75.58
2023-02-25T13:44:29.551Z,76.65
2023-02-25T13:47:10.085Z,76.75
2023-02-25T13:50:03.534Z,75.99
2023-02-25T13:53:17.159Z,75.67
2023-02-25T13:56:07.542Z,76.28
2023-02-25T13:58:41.560Z,75.46
2023-02-25T14:01:37.948Z,75.38
2023-02-25T14:04:39.781Z,73.68
2023-02-25T14:07:22.268Z,68.02
2023-02-25T14:10:12.001Z,67.91
2023-02-25T14:13:02.065Z,69.03
2023-02-25T14:16:13.971Z,70.28
2023-02-25T14:19:01.202Z,70.38
2023-02-25T14:21:53.671Z,70.68
2023-02-25T14:24:35.051Z,70.11
2023-02-25T14:27:22.719Z,70.26
2023-02-25T14:30:12.185Z,70.63
2023-02-25T14:33:01.876Z,69.38
2023-02-25T14:35:52.078Z,70.62
2023-02-25T14:38:52.417Z,71.38
2023-02-25T14:42:16.785Z,70.37
2023-02-25T14:45:13.246Z,69.36
2023-02-25T14:47:47.235Z,70.18
2023-02-25T14:50:30.955Z,71.12
2023-02-25T14:53:23.309Z,70.98
2023-02-25T14:56:15.917Z,71.30
2023-02-25T14:58:53.865Z,73.13
2023-02-25T15:01:57.248Z,73.54
2023-02-25T15:04:56.049Z,74.43
2023-02-25T15:07:56.362Z,74.10
2023-02-25T15:10:47.608Z,73.55
2023-02-25T15:13:34.718Z,73.93
2023-02-25T15:16:41.485Z,73.48
2023-02-25T15:19:28.692Z,73.49
2023-02-25T15:22:16.345Z,73.89
2023-02-25T15:24:45.250Z,73.96
2023-02-25T15:27:36.192Z,74.77
2023-02-25T15:30:18.685Z,75.47
2023-02-25T15:33:14.683Z,74.89
2023-02-25T15:35:43.470Z,75.15
2023-02-25T15:38:22.706Z,74.95
2023-02-25T15:40:52.769Z,74.75
2023-02-25T15:43:24.071Z,74.71
2023-02-25T15:45:55.771Z,74.77
2023-02-25T15:48:29.907Z,74.78
2023-02-25T15:51:00.227Z,74.48
2023-02-25T15:53:29.464Z,74.38
2023-02-25T15:56:03.593Z,74.60
2023-02-25T15:58:31.874Z,74.10
2023-02-25T16:01:23.471Z,74.52
2023-02-25T16:03:52.672Z,75.18
2023-02-25T16:06:32.526Z,75.20
2023-02-25T16:09:00.597Z,73.40
2023-02-25T16:11:34.210Z,71.96
2023-02-25T16:14:07.743Z,70.00
2023-02-25T16:16:41.700Z,69.16
2023-02-25T16:19:14.286Z,68.18
2023-02-25T16:21:52.328Z,68.64
2023-02-25T16:24:22.971Z,69.50
2023-02-25T16:26:59.399Z,68.83
2023-02-25T16:29:51.829Z,66.22
2023-02-25T16:32:26.618Z,65.23
2023-02-25T16:35:01.505Z,62.49
2023-02-25T16:37:32.352Z,63.10
2023-02-25T16:40:01.844Z,63.19
2023-02-25T16:42:33.556Z,63.96
2023-02-25T16:45:05.768Z,65.24
2023-02-25T16:47:36.887Z,66.47
2023-02-25T16:50:14.414Z,66.67
2023-02-25T16:52:49.110Z,67.76
2023-02-25T16:55:30.410Z,68.52
2023-02-25T16:58:23.475Z,67.03
2023-02-25T17:00:53.575Z,67.07
2023-02-25T17:03:24.805Z,67.59
2023-02-25T17:06:16.333Z,68.43
2023-02-25T17:08:50.435Z,67.68
2023-02-25T17:11:22.746Z,67.09
2023-02-25T17:13:55.445Z,66.66
2023-02-25T17:16:32.329Z,66.41
2023-02-25T17:19:08.762Z,66.54
2023-02-25T17:21:39.716Z,66.48
2023-02-25T17:24:14.593Z,66.16
2023-02-25T17:26:45.965Z,66.07
2023-02-25T17:29:16.526Z,66.42
2023-02-25T17:31:52.037Z,66.36
2023-02-25T17:34:30.087Z,66.16
2023-02-25T17:37:01.155Z,66.11
2023-02-25T17:39:30.201Z,66.12
2023-02-25T17:41:58.441Z,65.87
2023-02-25T17:44:42.744Z,65.69
2023-02-25T17:47:19.117Z,67.86
2023-02-25T17:49:48.102Z,69.84
2023-02-25T17:52:22.107Z,70.62
2023-02-25T17:54:59.406Z,70.89
2023-02-25T17:57:29.828Z,70.29
2023-02-25T18:00:20.678Z,71.44
2023-02-25T18:03:09.294Z,72.49
2023-02-25T18:05:52.343Z,72.57
2023-02-25T18:08:23.053Z,72.58
2023-02-25T18:10:55.406Z,73.16
2023-02-25T18:13:36.350Z,73.62
2023-02-25T18:16:34.066Z,74.31
2023-02-25T18:19:03.055Z,74.60
2023-02-25T18:21:31.337Z,74.59
2023-02-25T18:24:00.595Z,74.58
2023-02-25T18:26:28.913Z,74.55
2023-02-25T18:28:59.764Z,73.88
2023-02-25T18:31:27.912Z,72.26
2023-02-25T18:33:56.142Z,72.45
2023-02-25T18:36:27.757Z,73.47
2023-02-25T18:39:02.286Z,74.22
2023-02-25T18:41:30.448Z,74.76
2023-02-25T18:43:59.591Z,75.65
2023-02-25T18:46:29.081Z,76.44
2023-02-25T18:48:58.347Z,76.54
2023-02-25T18:51:26.681Z,76.35
2023-02-25T18:53:54.997Z,76.57
2023-02-25T18:56:24.577Z,77.09
2023-02-25T18:58:55.134Z,77.07
2023-02-25T19:01:27.349Z,77.26
2023-02-25T19:04:00.267Z,77.58
2023-02-25T19:06:30.930Z,77.75
2023-02-25T19:08:59.095Z,77.28
2023-02-25T19:11:33.726Z,77.86
2023-02-25T19:14:03.106Z,78.68
2023-02-25T19:16:31.393Z,78.18
2023-02-25T19:18:59.585Z,78.17
2023-02-25T19:21:28.366Z,78.02
2023-02-25T19:23:56.550Z,77.86
2023-02-25T19:26:25.952Z,77.63
2023-02-25T19:28:54.268Z,77.28
2023-02-25T19:31:22.308Z,77.81
2023-02-25T19:33:50.404Z,77.49
2023-02-25T19:36:18.957Z,77.45
2023-02-25T19:38:47.130Z,77.84
2023-02-25T19:41:15.504Z,78.48
2023-02-25T19:43:43.784Z,78.48
2023-02-25T19:46:12.312Z,78.11
2023-02-25T19:48:40.471Z,77.19
2023-02-25T19:51:09.937Z,77.27
2023-02-25T19:53:38.333Z,77.58
2023-02-25T19:56:08.137Z,77.52
2023-02-25T19:58:36.607Z,77.81
2023-02-25T20:01:07.375Z,77.31
2023-02-25T20:03:36.932Z,77.18
2023-02-25T20:06:12.208Z,77.20
2023-02-25T20:08:41.477Z,77.15
2023-02-25T20:11:10.487Z,77.31
2023-02-25T20:13:38.769Z,77.53
2023-02-25T20:16:08.438Z,77.33
2023-02-25T20:18:36.549Z,75.73
2023-02-25T20:21:05.589Z,74.65
2023-02-25T20:23:33.826Z,73.93
2023-02-25T20:26:09.346Z,73.52
2023-02-25T20:28:37.668Z,75.10
2023-02-25T20:31:08.966Z,76.21
2023-02-25T20:33:38.337Z,75.27
2023-02-25T20:36:33.090Z,74.78
2023-02-25T20:39:19.500Z,74.20
2023-02-25T20:41:47.771Z,73.80
2023-02-25T20:44:16.880Z,74.72
2023-02-25T20:46:45.358Z,76.36
2023-02-25T20:49:16.090Z,75.93
2023-02-25T20:51:47.196Z,76.05
2023-02-25T20:54:17.496Z,74.59
2023-02-25T20:56:47.361Z,74.43
2023-02-25T20:59:17.907Z,75.01
2023-02-25T21:01:46.279Z,74.71
2023-02-25T21:04:14.486Z,74.18
2023-02-25T21:06:43.221Z,73.20
2023-02-25T21:09:11.453Z,73.00
2023-02-25T21:11:39.805Z,73.09
2023-02-25T21:14:10.291Z,73.51
2023-02-25T21:16:39.352Z,73.23
2023-02-25T21:19:08.382Z,73.30
2023-02-25T21:21:37.470Z,72.17
2023-02-25T21:24:07.919Z,71.89
2023-02-25T21:26:39.730Z,71.53
2023-02-25T21:29:09.500Z,71.89
2023-02-25T21:31:38.569Z,71.82
2023-02-25T21:34:09.250Z,71.67
2023-02-25T21:36:38.231Z,71.13
2023-02-25T21:39:07.041Z,71.05
2023-02-25T21:41:36.627Z,70.98
2023-02-25T21:44:05.301Z,71.46
2023-02-25T21:46:33.403Z,71.23
2023-02-25T21:49:01.588Z,70.93
2023-02-25T21:51:30.079Z,71.19
2023-02-25T21:54:00.558Z,72.41
2023-02-25T21:56:30.788Z,72.74
2023-02-25T21:59:02.500Z,72.87
2023-02-25T22:01:33.514Z,73.49
2023-02-25T22:04:02.040Z,73.30
2023-02-25T22:06:30.454Z,73.32
2023-02-25T22:08:59.854Z,72.84
2023-02-25T22:11:32.736Z,72.82
2023-02-25T22:14:03.103Z,73.39
2023-02-25T22:16:31.347Z,73.80
2023-02-25T22:19:00.342Z,73.68
2023-02-25T22:21:30.575Z,73.71
2023-02-25T22:24:01.187Z,73.92
2023-02-25T22:26:32.747Z,73.62
2023-02-25T22:29:04.224Z,73.75
2023-02-25T22:31:34.221Z,73.71
2023-02-25T22:34:03.111Z,73.88
2023-02-25T22:36:31.701Z,74.98
2023-02-25T22:38:59.762Z,75.17
2023-02-25T22:41:30.226Z,74.96
2023-02-25T22:43:58.983Z,75.24
2023-02-25T22:46:32.414Z,75.40
2023-02-25T22:49:00.554Z,75.42
2023-02-25T22:51:34.665Z,75.31
2023-02-25T22:54:04.924Z,75.04
2023-02-25T22:56:33.032Z,74.60
2023-02-25T22:59:01.452Z,74.94
2023-02-25T23:01:29.671Z,74.57
2023-02-25T23:03:59.135Z,74.96
2023-02-25T23:06:42.321Z,75.12
2023-02-25T23:09:14.240Z,75.39
2023-02-25T23:11:44.315Z,75.67
2023-02-25T23:14:14.468Z,75.53
2023-02-25T23:16:45.141Z,75.42
2023-02-25T23:19:17.239Z,74.99
2023-02-25T23:21:46.463Z,75.47
2023-02-25T23:24:18.562Z,75.23
2023-02-25T23:26:50.558Z,74.75
2023-02-25T23:29:19.684Z,74.82
2023-02-25T23:31:48.972Z,75.78
2023-02-25T23:34:23.484Z,76.02
2023-02-25T23:36:56.709Z,76.39
2023-02-25T23:39:25.493Z,76.28
2023-02-25T23:41:53.968Z,76.27
2023-02-25T23:44:22.230Z,76.71
2023-02-25T23:46:50.717Z,77.61
2023-02-25T23:49:18.930Z,77.09
2023-02-25T23:51:48.808Z,76.55
2023-02-25T23:54:20.188Z,76.47
2023-02-25T23:56:50.077Z,77.19
2023-02-25T23:59:19.067Z,76.63
